Time;durP1;ratioP1;P1;durP2;ratioP2;P2;SDS_P1;SDS_P2;PMS_P1;PMS_P2;Temp;Humidity;BMP_temperature;BMP_pressure;BME280_temperature;BME280_humidity;BME280_pressure;Samples;Min_cycle;Max_cycle;Signal;HPM_P1;HPM_P2
2022/01/07 00:02:24;;;;;;;4.22;1.35;;;15.00;46.20;;;;;;5113266;28;20134;-67
2022/01/07 00:04:50;;;;;;;4.20;1.60;;;15.00;46.20;;;;;;5114404;28;20036;-66
2022/01/07 00:07:16;;;;;;;2.95;1.08;;;15.00;46.30;;;;;;5113023;28;20039;-64
2022/01/07 00:09:42;;;;;;;4.03;1.20;;;15.00;46.20;;;;;;5112649;28;20039;-66
2022/01/07 00:12:08;;;;;;;3.75;1.48;;;15.00;46.20;;;;;;5112982;28;20180;-65
2022/01/07 00:14:33;;;;;;;4.75;1.00;;;15.00;46.30;;;;;;5113266;28;20036;-65
2022/01/07 00:16:59;;;;;;;5.47;1.75;;;15.00;46.30;;;;;;5114152;28;20122;-65
2022/01/07 00:19:25;;;;;;;4.88;1.40;;;14.90;46.20;;;;;;5113172;28;20075;-65
2022/01/07 00:21:51;;;;;;;3.55;1.08;;;14.90;47.00;;;;;;5113068;28;20035;-65
2022/01/07 00:24:16;;;;;;;2.75;0.98;;;14.90;46.30;;;;;;5112765;28;20493;-65
2022/01/07 00:26:43;;;;;;;5.00;1.35;;;14.90;46.30;;;;;;5113020;28;20039;-65
2022/01/07 00:29:08;;;;;;;4.82;1.20;;;14.80;46.40;;;;;;5113989;28;20044;-66
2022/01/07 00:31:34;;;;;;;5.50;1.92;;;14.80;46.50;;;;;;5113845;28;20100;-66
2022/01/07 00:34:00;;;;;;;2.25;1.08;;;14.80;46.30;;;;;;5112792;28;20043;-66
2022/01/07 00:36:26;;;;;;;3.53;1.20;;;14.80;46.40;;;;;;5112540;28;20031;-65
2022/01/07 00:38:52;;;;;;;4.20;1.33;;;14.80;46.40;;;;;;5112783;28;20085;-65
2022/01/07 00:41:18;;;;;;;3.40;1.73;;;14.80;46.40;;;;;;5112654;28;20081;-65
2022/01/07 00:43:43;;;;;;;4.40;1.45;;;14.80;47.10;;;;;;5112780;28;20491;-65
2022/01/07 00:46:09;;;;;;;4.95;1.70;;;14.80;46.40;;;;;;5113587;28;20127;-65
2022/01/07 00:48:35;;;;;;;4.72;1.08;;;14.70;46.30;;;;;;5113727;28;20105;-65
2022/01/07 00:51:00;;;;;;;3.85;1.38;;;14.70;46.40;;;;;;5112323;28;20376;-65
2022/01/07 00:53:26;;;;;;;6.32;1.45;;;14.70;46.30;;;;;;5113624;28;20032;-66
2022/01/07 00:55:54;;;;;;;4.22;1.63;;;14.70;46.40;;;;;;5112501;28;20487;-65
2022/01/07 00:58:20;;;;;;;3.80;1.25;;;14.70;46.40;;;;;;5112431;28;20067;-65
2022/01/07 01:00:46;;;;;;;3.03;0.90;;;14.70;46.40;;;;;;5112137;28;20493;-65
2022/01/07 01:03:11;;;;;;;4.20;0.90;;;14.60;46.40;;;;;;5113329;28;20122;-65
2022/01/07 01:05:39;;;;;;;2.78;1.17;;;14.70;46.50;;;;;;5112079;28;20115;-65
2022/01/07 01:08:04;;;;;;;4.55;0.90;;;14.70;46.60;;;;;;5112213;28;20494;-65
2022/01/07 01:10:30;;;;;;;2.55;0.85;;;14.60;46.50;;;;;;5112821;28;20108;-66
2022/01/07 01:12:56;;;;;;;3.40;1.13;;;14.60;46.50;;;;;;5113145;28;20044;-65
2022/01/07 01:15:25;;;;;;;4.95;0.85;;;14.60;46.60;;;;;;5112105;28;20503;-65
2022/01/07 01:17:52;;;;;;;4.85;1.67;;;14.60;46.60;;;;;;5111733;28;20032;-65
2022/01/07 01:20:18;;;;;;;5.68;1.38;;;14.60;46.60;;;;;;5111381;28;20112;-65
2022/01/07 01:22:45;;;;;;;3.53;1.13;;;14.60;46.60;;;;;;5111896;28;20127;-66
2022/01/07 01:25:11;;;;;;;3.50;0.88;;;14.60;46.60;;;;;;5112972;28;20035;-65
2022/01/07 01:27:37;;;;;;;2.38;0.90;;;14.60;46.70;;;;;;5111623;28;20044;-66
2022/01/07 01:30:05;;;;;;;3.53;1.10;;;14.50;46.70;;;;;;5111532;28;20043;-65
2022/01/07 01:32:30;;;;;;;3.53;1.30;;;14.50;46.70;;;;;;5111817;28;20035;-66
2022/01/07 01:34:56;;;;;;;4.60;1.30;;;14.50;46.70;;;;;;5111681;28;20394;-66
2022/01/07 01:37:22;;;;;;;1.58;0.70;;;14.50;46.70;;;;;;5111601;28;20036;-65
2022/01/07 01:39:54;;;;;;;2.75;1.15;;;14.50;46.80;;;;;;5111531;28;20051;-66
2022/01/07 01:42:19;;;;;;;2.60;0.95;;;14.50;46.80;;;;;;5111401;28;20471;-66
2022/01/07 01:44:45;;;;;;;5.20;1.30;;;14.50;46.90;;;;;;5112549;28;20123;-65
2022/01/07 01:47:10;;;;;;;6.13;0.90;;;14.50;47.00;;;;;;5112719;28;20035;-65
2022/01/07 01:49:36;;;;;;;2.78;1.10;;;14.40;47.00;;;;;;5112489;28;20114;-65
2022/01/07 01:52:02;;;;;;;3.30;0.90;;;14.40;47.00;;;;;;5111331;28;20443;-67
2022/01/07 01:54:28;;;;;;;4.80;1.45;;;14.40;47.10;;;;;;5112436;28;20048;-66
2022/01/07 01:56:53;;;;;;;4.72;1.13;;;14.40;47.20;;;;;;5112615;28;20054;-65
2022/01/07 01:59:25;;;;;;;4.18;1.20;;;14.40;47.20;;;;;;5111336;28;20044;-66
2022/01/07 02:01:51;;;;;;;3.22;0.98;;;14.40;47.20;;;;;;5112670;28;20055;-65
2022/01/07 02:04:17;;;;;;;4.50;1.10;;;14.40;47.20;;;;;;5112463;28;20044;-66
2022/01/07 02:06:42;;;;;;;2.55;0.80;;;14.40;47.20;;;;;;5111093;28;20047;-65
2022/01/07 02:09:08;;;;;;;2.85;0.68;;;14.30;47.20;;;;;;5111295;28;20035;-66
2022/01/07 02:11:34;;;;;;;3.03;0.82;;;14.30;48.00;;;;;;5110797;28;20167;-66
2022/01/07 02:14:00;;;;;;;2.58;1.05;;;14.30;47.30;;;;;;5112223;28;20039;-65
2022/01/07 02:16:27;;;;;;;2.45;0.77;;;14.30;47.30;;;;;;5110975;28;20040;-65
2022/01/07 02:18:53;;;;;;;2.78;1.10;;;14.30;47.40;;;;;;5111285;28;20105;-65
2022/01/07 02:21:19;;;;;;;2.63;0.70;;;14.30;47.50;;;;;;5110914;28;20491;-65
2022/01/07 02:23:44;;;;;;;3.47;1.10;;;14.30;47.50;;;;;;5111191;28;20044;-66
2022/01/07 02:26:12;;;;;;;2.72;0.70;;;14.30;47.50;;;;;;5111088;28;20491;-66
2022/01/07 02:28:40;;;;;;;3.90;1.10;;;14.30;47.50;;;;;;5110891;28;20040;-65
2022/01/07 02:31:06;;;;;;;2.20;0.80;;;14.20;47.40;;;;;;5112262;28;20043;-67
2022/01/07 02:33:32;;;;;;;2.97;1.13;;;14.20;47.50;;;;;;5116296;28;20388;-67
2022/01/07 02:35:57;;;;;;;4.90;0.90;;;14.20;47.50;;;;;;5115093;28;20040;-65
2022/01/07 02:38:23;;;;;;;3.08;1.10;;;14.20;47.60;;;;;;5115037;28;20047;-65
2022/01/07 02:40:49;;;;;;;4.63;0.90;;;14.20;47.50;;;;;;5114774;28;20047;-65
2022/01/07 02:43:15;;;;;;;3.28;0.88;;;14.20;47.60;;;;;;5116151;28;20038;-66
2022/01/07 02:45:40;;;;;;;2.63;0.75;;;14.20;47.60;;;;;;5114741;28;20035;-66
2022/01/07 02:48:06;;;;;;;2.40;0.80;;;14.20;47.70;;;;;;5115079;28;20164;-67
2022/01/07 02:50:35;;;;;;;3.03;1.08;;;14.20;47.70;;;;;;5115911;28;20146;-67
2022/01/07 02:53:04;;;;;;;2.20;0.77;;;14.20;47.80;;;;;;5116426;28;20028;-65
2022/01/07 02:55:30;;;;;;;3.33;0.70;;;14.10;47.70;;;;;;5115881;28;20032;-65
2022/01/07 02:57:56;;;;;;;3.67;1.00;;;14.10;47.70;;;;;;5114614;28;20445;-65
2022/01/07 03:00:22;;;;;;;2.67;1.10;;;14.10;47.70;;;;;;5115828;28;20043;-65
2022/01/07 03:02:52;;;;;;;2.45;0.85;;;14.10;47.80;;;;;;5114788;28;20071;-66
2022/01/07 03:05:19;;;;;;;4.57;1.10;;;14.10;47.80;;;;;;5115735;28;20043;-65
2022/01/07 03:07:47;;;;;;;2.72;0.70;;;14.10;47.90;;;;;;5115568;28;20048;-66
2022/01/07 03:10:14;;;;;;;2.75;0.80;;;14.10;47.80;;;;;;5115166;28;20079;-66
2022/01/07 03:12:43;;;;;;;1.42;0.73;;;14.10;47.90;;;;;;5114225;28;20043;-67
2022/01/07 03:15:12;;;;;;;3.50;0.95;;;14.10;47.90;;;;;;5114202;28;20045;-66
2022/01/07 03:17:39;;;;;;;2.38;0.60;;;14.10;47.90;;;;;;5114318;28;20035;-64
2022/01/07 03:20:08;;;;;;;2.58;0.63;;;14.10;47.90;;;;;;5115482;28;20046;-67
2022/01/07 03:22:37;;;;;;;1.73;0.70;;;14.00;47.90;;;;;;5114053;28;20047;-65
2022/01/07 03:25:04;;;;;;;2.45;0.57;;;14.10;48.00;;;;;;5113983;28;20048;-67
2022/01/07 03:27:29;;;;;;;2.22;0.88;;;14.00;47.90;;;;;;5115224;28;20028;-67
2022/01/07 03:29:55;;;;;;;3.10;1.60;;;14.00;47.90;;;;;;5115493;28;20104;-65
2022/01/07 03:32:21;;;;;;;2.83;0.93;;;14.00;48.00;;;;;;5113844;28;20042;-66
2022/01/07 03:34:46;;;;;;;2.35;0.70;;;14.00;48.00;;;;;;5114124;28;20035;-65
2022/01/07 03:37:12;;;;;;;1.70;0.70;;;14.00;48.00;;;;;;5113750;28;20043;-67
2022/01/07 03:39:38;;;;;;;1.83;0.60;;;14.00;48.10;;;;;;5114970;28;20036;-66
2022/01/07 03:42:04;;;;;;;3.22;0.70;;;14.10;48.10;;;;;;5113277;28;20047;-65
2022/01/07 03:44:29;;;;;;;3.00;0.70;;;14.00;48.10;;;;;;5113456;28;20540;-66
2022/01/07 03:46:55;;;;;;;2.22;0.85;;;14.00;48.10;;;;;;5113811;28;20067;-67
2022/01/07 03:49:21;;;;;;;2.55;0.82;;;13.90;48.10;;;;;;5113849;28;20080;-65
2022/01/07 03:51:46;;;;;;;3.47;0.80;;;13.90;48.10;;;;;;5113422;28;20406;-67
2022/01/07 03:54:12;;;;;;;3.22;0.98;;;13.90;48.10;;;;;;5113850;28;20043;-65
2022/01/07 03:56:38;;;;;;;1.45;0.95;;;13.90;48.10;;;;;;5113439;28;20116;-65
2022/01/07 03:59:06;;;;;;;2.35;0.90;;;13.90;48.10;;;;;;5113269;28;20066;-65
2022/01/07 04:01:32;;;;;;;2.60;0.90;;;13.90;48.20;;;;;;5114754;28;20399;-65
2022/01/07 04:03:58;;;;;;;3.70;0.85;;;13.90;48.20;;;;;;5114597;28;20092;-65
2022/01/07 04:06:23;;;;;;;2.28;0.93;;;13.90;48.20;;;;;;5113233;28;20051;-66
2022/01/07 04:08:52;;;;;;;2.42;0.82;;;13.90;48.20;;;;;;5113440;27;20044;-65
2022/01/07 04:11:18;;;;;;;3.22;1.20;;;13.90;48.30;;;;;;5112702;28;20059;-65
2022/01/07 04:13:44;;;;;;;2.05;0.63;;;13.90;48.30;;;;;;5112939;28;20398;-65
2022/01/07 04:16:11;;;;;;;1.63;0.60;;;13.90;48.30;;;;;;5113371;28;20122;-65
2022/01/07 04:18:36;;;;;;;3.88;0.98;;;13.90;48.30;;;;;;5114197;28;20039;-66
2022/01/07 04:21:03;;;;;;;2.33;0.63;;;13.80;48.30;;;;;;5113273;28;20043;-66
2022/01/07 04:23:28;;;;;;;2.88;0.65;;;13.80;48.30;;;;;;5114119;28;20039;-65
2022/01/07 04:25:54;;;;;;;2.40;0.68;;;13.80;48.30;;;;;;5114106;28;20032;-65
2022/01/07 04:28:23;;;;;;;2.78;0.93;;;13.80;48.30;;;;;;5113086;28;20438;-66
2022/01/07 04:30:48;;;;;;;1.67;0.70;;;13.90;48.40;;;;;;5112755;28;20043;-66
2022/01/07 04:33:21;;;;;;;1.63;0.70;;;13.80;48.30;;;;;;5112722;28;20070;-65
2022/01/07 04:35:48;;;;;;;1.38;0.40;;;13.80;48.30;;;;;;5112654;28;20550;-65
2022/01/07 04:38:20;;;;;;;2.72;0.50;;;13.80;48.40;;;;;;5112958;28;20039;-65
2022/01/07 04:40:46;;;;;;;2.10;0.80;;;13.80;48.40;;;;;;5112732;28;20320;-65
2022/01/07 04:43:12;;;;;;;1.90;0.65;;;13.80;48.40;;;;;;5112852;28;20079;-65
2022/01/07 04:45:38;;;;;;;1.90;0.50;;;13.90;48.40;;;;;;5112694;28;20086;-65
2022/01/07 04:48:04;;;;;;;2.05;0.60;;;14.00;48.30;;;;;;5112746;28;20519;-65
2022/01/07 04:50:30;;;;;;;1.92;0.45;;;14.20;48.00;;;;;;5112304;28;20130;-65
2022/01/07 04:52:57;;;;;;;2.95;0.40;;;14.50;47.70;;;;;;5112320;28;20040;-67
2022/01/07 04:55:29;;;;;;;3.13;0.82;;;14.70;47.30;;;;;;5111727;28;20160;-65
2022/01/07 04:57:56;;;;;;;1.92;0.38;;;15.00;46.80;;;;;;5113896;28;20050;-65
2022/01/07 05:00:23;;;;;;;1.77;0.40;;;15.40;46.20;;;;;;5113477;28;20079;-66
2022/01/07 05:02:50;;;;;;;0.80;0.40;;;15.80;45.60;;;;;;5112106;28;20073;-67
2022/01/07 05:05:15;;;;;;;1.40;0.40;;;16.20;45.00;;;;;;5113377;28;20047;-67
2022/01/07 05:07:41;;;;;;;1.42;0.30;;;16.60;44.20;;;;;;5113296;28;20032;-67
2022/01/07 05:10:10;;;;;;;1.60;0.30;;;17.00;43.60;;;;;;5111536;28;20043;-65
2022/01/07 05:12:42;;;;;;;0.75;0.20;;;17.40;43.00;;;;;;5113269;27;20153;-67
2022/01/07 05:15:08;;;;;;;1.83;0.60;;;17.70;42.40;;;;;;5111781;28;20082;-66
2022/01/07 05:17:34;;;;;;;1.13;0.30;;;18.00;42.00;;;;;;5112100;28;20044;-65
2022/01/07 05:20:03;;;;;;;1.35;0.40;;;18.20;41.60;;;;;;5112010;28;20046;-67
2022/01/07 05:22:29;;;;;;;1.05;0.20;;;18.30;41.20;;;;;;5113001;28;20048;-65
2022/01/07 05:24:58;;;;;;;1.00;0.30;;;18.40;41.00;;;;;;5113015;28;20363;-66
2022/01/07 05:27:24;;;;;;;0.80;0.40;;;18.50;40.80;;;;;;5111742;28;20159;-66
2022/01/07 05:29:49;;;;;;;1.58;0.50;;;18.50;40.60;;;;;;5112840;28;20053;-67
2022/01/07 05:32:15;;;;;;;1.38;0.10;;;18.60;40.60;;;;;;5112880;28;20467;-65
2022/01/07 05:34:41;;;;;;;2.60;0.38;;;18.60;40.50;;;;;;5111573;28;20572;-66
2022/01/07 05:37:10;;;;;;;0.95;0.25;;;18.50;40.40;;;;;;5112677;28;20039;-65
2022/01/07 05:39:38;;;;;;;1.42;0.50;;;18.50;40.40;;;;;;5111875;28;20036;-65
2022/01/07 05:42:05;;;;;;;1.58;0.20;;;18.50;40.40;;;;;;5111612;28;20036;-65
2022/01/07 05:44:31;;;;;;;1.02;0.40;;;18.40;40.40;;;;;;5111406;28;20506;-65
2022/01/07 05:46:56;;;;;;;1.55;0.30;;;18.30;41.20;;;;;;5111400;28;20048;-65
2022/01/07 05:49:25;;;;;;;1.50;0.45;;;18.30;40.50;;;;;;5112627;28;20044;-66
2022/01/07 05:51:51;;;;;;;2.05;0.30;;;18.20;40.60;;;;;;5112359;28;20089;-66
2022/01/07 05:54:16;;;;;;;1.23;0.30;;;18.10;40.60;;;;;;5111247;28;20043;-66
2022/01/07 05:56:42;;;;;;;0.75;0.22;;;18.00;40.70;;;;;;5112694;28;20115;-65
2022/01/07 05:59:07;;;;;;;1.15;0.30;;;18.00;40.80;;;;;;5111214;28;20032;-66
2022/01/07 06:01:33;;;;;;;1.00;0.30;;;17.80;40.90;;;;;;5111089;28;20043;-65
2022/01/07 06:03:59;;;;;;;1.15;0.20;;;17.70;41.00;;;;;;5111423;28;20050;-65
2022/01/07 06:06:24;;;;;;;0.60;0.28;;;17.60;41.20;;;;;;5112179;28;20070;-65
2022/01/07 06:08:50;;;;;;;1.33;0.30;;;17.60;41.40;;;;;;5111260;28;20043;-66
2022/01/07 06:11:15;;;;;;;0.90;0.20;;;17.40;41.50;;;;;;5110735;28;20055;-65
2022/01/07 06:13:41;;;;;;;1.17;0.30;;;17.40;41.60;;;;;;5112299;28;20429;-66
2022/01/07 06:16:07;;;;;;;2.22;0.60;;;17.20;41.80;;;;;;5110891;28;20032;-65
2022/01/07 06:18:33;;;;;;;1.70;0.30;;;17.10;41.90;;;;;;5112283;28;20024;-65
2022/01/07 06:20:58;;;;;;;0.98;0.30;;;17.00;42.10;;;;;;5110945;28;20051;-65
2022/01/07 06:23:24;;;;;;;1.27;0.63;;;16.90;42.20;;;;;;5111049;28;20043;-66
2022/01/07 06:25:50;;;;;;;0.57;0.20;;;16.90;42.40;;;;;;5110896;28;20043;-65
2022/01/07 06:28:17;;;;;;;1.52;0.40;;;16.80;42.60;;;;;;5112128;28;20137;-65
2022/01/07 06:30:43;;;;;;;0.90;0.43;;;16.70;42.70;;;;;;5112346;28;20498;-65
2022/01/07 06:33:09;;;;;;;0.82;0.20;;;16.60;42.80;;;;;;5112119;28;20031;-65
2022/01/07 06:35:34;;;;;;;1.67;0.20;;;16.50;42.90;;;;;;5110809;28;20487;-66
2022/01/07 06:38:00;;;;;;;1.02;0.22;;;16.40;43.00;;;;;;5110954;28;20089;-65
2022/01/07 06:40:26;;;;;;;1.00;0.30;;;16.40;43.30;;;;;;5112081;28;20455;-65
2022/01/07 06:42:51;;;;;;;0.95;0.30;;;16.30;43.30;;;;;;5110938;28;20088;-65
2022/01/07 06:45:17;;;;;;;1.25;0.30;;;16.20;43.40;;;;;;5111973;28;20032;-65
2022/01/07 06:47:43;;;;;;;1.73;0.20;;;16.20;43.50;;;;;;5111010;28;20352;-65
2022/01/07 06:50:10;;;;;;;1.33;0.63;;;16.20;43.70;;;;;;5111927;28;20097;-66
2022/01/07 06:52:36;;;;;;;1.23;0.40;;;16.10;43.80;;;;;;5112390;28;20042;-65
2022/01/07 06:55:03;;;;;;;1.15;0.40;;;16.00;43.80;;;;;;5110558;28;20043;-67
2022/01/07 06:57:34;;;;;;;1.17;0.40;;;16.00;44.00;;;;;;5110606;28;20040;-66
2022/01/07 07:00:00;;;;;;;1.42;0.20;;;15.90;44.10;;;;;;5110508;28;20074;-66
2022/01/07 07:02:25;;;;;;;0.80;0.38;;;15.80;44.20;;;;;;5110812;28;20075;-66
2022/01/07 07:04:52;;;;;;;1.10;0.30;;;15.80;44.40;;;;;;5110437;28;20035;-65
2022/01/07 07:07:17;;;;;;;0.95;0.35;;;15.70;44.50;;;;;;5111802;28;20092;-65
2022/01/07 07:09:43;;;;;;;1.02;0.30;;;15.60;44.60;;;;;;5110291;28;20122;-66
2022/01/07 07:12:13;;;;;;;1.20;0.40;;;15.50;44.70;;;;;;5110320;28;20048;-65
2022/01/07 07:14:38;;;;;;;1.83;0.30;;;15.40;44.80;;;;;;5111762;28;20031;-65
2022/01/07 07:17:04;;;;;;;0.88;0.40;;;15.40;45.10;;;;;;5110600;28;20050;-66
2022/01/07 07:19:31;;;;;;;0.68;0.22;;;15.30;45.20;;;;;;5114118;28;20046;-65
2022/01/07 07:21:57;;;;;;;0.70;0.20;;;15.20;45.30;;;;;;5114108;28;20052;-65
2022/01/07 07:24:23;;;;;;;1.48;0.55;;;15.20;45.50;;;;;;5115198;28;20031;-66
2022/01/07 07:26:48;;;;;;;1.70;0.30;;;15.10;45.70;;;;;;5115274;28;20040;-66
2022/01/07 07:29:14;;;;;;;1.50;0.30;;;15.00;45.80;;;;;;5113909;28;20050;-66
2022/01/07 07:31:44;;;;;;;1.15;0.30;;;15.00;46.00;;;;;;5113949;28;20048;-65
2022/01/07 07:36:55;;;;;;;1.73;0.40;;;14.90;45.60;;;;;;5113945;28;20050;-66
2022/01/07 07:39:20;;;;;;;1.00;0.30;;;14.80;46.30;;;;;;5115393;28;20371;-66
2022/01/07 07:41:46;;;;;;;0.95;0.38;;;14.80;46.50;;;;;;5113641;28;20406;-66
2022/01/07 07:44:12;;;;;;;1.70;0.40;;;14.70;46.50;;;;;;5115002;28;20050;-66
2022/01/07 07:46:40;;;;;;;1.35;0.30;;;14.70;46.60;;;;;;5115035;28;20032;-66
2022/01/07 07:49:07;;;;;;;1.20;0.50;;;14.70;46.70;;;;;;5113677;28;20114;-67
2022/01/07 07:51:34;;;;;;;1.90;0.45;;;14.60;46.70;;;;;;5114620;28;20043;-65
2022/01/07 07:54:03;;;;;;;1.90;0.50;;;14.60;46.80;;;;;;5113836;28;20055;-66
2022/01/07 07:56:29;;;;;;;1.33;0.80;;;14.60;46.90;;;;;;5113408;28;20079;-65
2022/01/07 07:58:57;;;;;;;0.85;0.30;;;14.60;46.90;;;;;;5114696;28;20074;-66
2022/01/07 08:01:26;;;;;;;0.77;0.40;;;14.60;47.00;;;;;;5114647;28;20048;-65
2022/01/07 08:03:52;;;;;;;0.95;0.40;;;14.50;46.90;;;;;;5114700;28;20036;-65
2022/01/07 08:06:18;;;;;;;2.35;0.73;;;14.50;47.00;;;;;;5114486;28;20042;-65
2022/01/07 08:08:45;;;;;;;0.70;0.30;;;14.50;47.10;;;;;;5113287;28;20046;-65
2022/01/07 08:11:12;;;;;;;1.17;0.55;;;14.50;47.10;;;;;;5112692;28;20048;-65
2022/01/07 08:16:30;;;;;;;1.38;0.40;;;14.60;47.50;;;;;;5111522;28;20040;-65
2022/01/07 08:18:58;;;;;;;1.60;0.40;;;14.60;47.60;;;;;;5112920;28;20035;-66
2022/01/07 08:21:27;;;;;;;1.50;0.52;;;14.60;47.60;;;;;;5113511;28;20035;-67
2022/01/07 08:23:54;;;;;;;3.47;0.38;;;14.70;47.70;;;;;;5111951;28;20056;-66
2022/01/07 08:26:20;;;;;;;2.85;0.40;;;14.90;47.60;;;;;;5113753;28;20028;-64
2022/01/07 08:28:51;;;;;;;1.73;0.40;;;15.10;47.40;;;;;;5112514;28;20057;-66
2022/01/07 08:36:49;;;;;;;0.65;0.30;;;15.90;46.30;;;;;;5127494;28;20434;-65
2022/01/07 08:39:14;;;;;;;2.13;0.57;;;16.20;45.80;;;;;;5128668;28;20047;-67
2022/01/07 08:41:42;;;;;;;4.30;0.60;;;16.40;45.40;;;;;;5130078;28;20039;-63
2022/01/07 08:44:09;;;;;;;3.42;0.40;;;16.70;45.00;;;;;;5128125;28;20036;-65
2022/01/07 08:46:35;;;;;;;1.20;0.50;;;17.10;44.40;;;;;;5128185;28;20040;-66
2022/01/07 08:49:03;;;;;;;1.52;0.30;;;17.50;43.90;;;;;;5128778;28;20122;-67
2022/01/07 08:51:28;;;;;;;2.92;0.38;;;17.80;43.40;;;;;;5128666;28;20051;-68
2022/01/07 08:53:55;;;;;;;3.05;0.65;;;18.10;43.00;;;;;;5128849;28;20031;-67
2022/01/07 08:56:24;;;;;;;0.70;0.45;;;18.40;42.60;;;;;;5129634;27;20038;-66
2022/01/07 08:58:51;;;;;;;1.40;0.20;;;18.60;42.20;;;;;;5127478;28;20054;-69
2022/01/07 09:01:18;;;;;;;1.05;0.20;;;18.90;41.90;;;;;;5130047;27;20091;-68
2022/01/07 09:03:43;;;;;;;2.42;0.20;;;19.10;41.70;;;;;;5127536;28;20043;-67
2022/01/07 09:06:09;;;;;;;1.70;0.40;;;19.30;41.30;;;;;;5129314;28;20195;-74
2022/01/07 09:08:38;;;;;;;2.35;0.40;;;19.50;41.00;;;;;;5129117;28;20046;-69
2022/01/07 09:11:03;;;;;;;2.90;0.32;;;19.70;40.70;;;;;;5129691;28;20035;-68
2022/01/07 09:13:29;;;;;;;0.80;0.20;;;19.80;40.20;;;;;;5128124;28;20062;-70
2022/01/07 09:15:55;;;;;;;5.10;0.40;;;20.00;40.00;;;;;;5107452;28;20043;-69
2022/01/07 09:18:21;;;;;;;1.50;0.30;;;20.20;39.60;;;;;;5127571;28;20031;-71
2022/01/07 09:20:50;;;;;;;3.25;0.30;;;20.40;39.30;;;;;;5127535;28;20472;-69
2022/01/07 09:23:16;;;;;;;0.60;0.28;;;20.50;39.00;;;;;;5129380;27;20126;-72
2022/01/07 09:25:42;;;;;;;0.98;0.22;;;20.60;38.80;;;;;;5129366;28;20584;-68
2022/01/07 09:28:10;;;;;;;1.00;0.20;;;20.70;38.60;;;;;;5127911;28;20046;-73
2022/01/07 09:30:36;;;;;;;0.93;0.30;;;20.70;38.60;;;;;;5128173;28;20044;-71
2022/01/07 09:33:03;;;;;;;1.98;0.40;;;20.70;38.70;;;;;;5127031;28;20059;-70
2022/01/07 09:35:29;;;;;;;1.33;0.32;;;20.80;38.80;;;;;;5128999;27;20387;-70
2022/01/07 09:37:55;;;;;;;2.05;0.52;;;20.80;38.80;;;;;;5129225;27;20179;-67
2022/01/07 09:40:21;;;;;;;0.85;0.30;;;20.80;38.80;;;;;;5128988;28;20515;-69
2022/01/07 09:43:06;;;;;;;1.10;0.45;;;20.80;38.80;;;;;;5127873;28;20062;-71
2022/01/07 09:45:33;;;;;;;1.48;0.32;;;20.90;38.80;;;;;;5113330;28;20360;-71
2022/01/07 09:48:01;;;;;;;2.47;0.55;;;21.00;38.80;;;;;;5115205;28;20152;-71
2022/01/07 09:50:28;;;;;;;2.95;0.45;;;21.10;38.70;;;;;;5115257;28;20039;-68
2022/01/07 09:52:55;;;;;;;1.33;0.30;;;21.10;38.60;;;;;;5113459;28;20079;-68
2022/01/07 09:55:21;;;;;;;0.85;0.30;;;21.10;38.50;;;;;;5115005;28;20099;-68
2022/01/07 09:57:47;;;;;;;1.63;0.20;;;21.20;38.50;;;;;;5114104;28;20088;-71
2022/01/07 10:00:13;;;;;;;0.88;0.20;;;21.20;38.40;;;;;;5114546;28;20122;-71
2022/01/07 10:03:06;;;;;;;1.25;0.30;;;21.40;38.30;;;;;;5110952;28;20126;-68
2022/01/07 10:08:27;;;;;;;0.82;0.20;;;21.60;38.20;;;;;;5068924;28;20369;-64
2022/01/07 10:14:13;;;;;;;1.27;0.43;;;22.10;37.90;;;;;;5129552;27;20455;-67
2022/01/07 10:16:56;;;;;;;2.15;0.30;;;22.30;37.40;;;;;;5108750;28;20511;-67
2022/01/07 10:19:40;;;;;;;0.85;0.20;;;22.60;37.40;;;;;;5108361;28;20054;-66
2022/01/07 10:27:37;;;;;;;1.00;0.20;;;22.80;37.00;;;;;;5089541;27;20535;-66
2022/01/07 10:32:51;;;;;;;1.05;0.20;;;23.30;35.40;;;;;;5129568;27;20302;-68
2022/01/07 10:35:19;;;;;;;1.00;0.20;;;23.30;35.50;;;;;;5117981;28;20066;-67
2022/01/07 10:38:04;;;;;;;0.75;0.20;;;23.30;35.30;;;;;;5117517;28;20050;-66
2022/01/07 10:45:56;;;;;;;0.40;0.15;;;23.20;35.40;;;;;;5129663;27;20407;-68
2022/01/07 10:48:35;;;;;;;2.28;0.68;;;23.00;35.60;;;;;;5119852;28;20061;-67
2022/01/07 10:51:06;;;;;;;1.25;0.32;;;23.00;35.70;;;;;;5112031;28;20040;-66
2022/01/07 10:53:32;;;;;;;1.38;0.30;;;23.00;35.80;;;;;;5114101;28;20065;-67
2022/01/07 10:56:09;;;;;;;1.00;0.20;;;22.90;35.90;;;;;;5110958;28;20067;-66
2022/01/07 10:58:55;;;;;;;0.52;0.17;;;22.80;36.10;;;;;;5118842;28;20390;-65
2022/01/07 11:04:02;;;;;;;0.45;0.10;;;22.80;36.20;;;;;;5129785;27;20354;-64
2022/01/07 11:06:29;;;;;;;0.45;0.20;;;22.80;36.20;;;;;;5125200;28;20047;-67
2022/01/07 11:08:56;;;;;;;2.13;0.13;;;22.80;36.20;;;;;;5127611;28;20048;-66
2022/01/07 11:11:24;;;;;;;1.17;0.63;;;22.80;36.40;;;;;;5129161;28;20047;-68
2022/01/07 11:13:54;;;;;;;0.65;0.20;;;22.80;36.50;;;;;;5126953;28;20449;-68
2022/01/07 11:16:23;;;;;;;1.30;0.32;;;22.70;36.60;;;;;;5123472;28;20513;-68
2022/01/07 11:18:52;;;;;;;1.50;0.95;;;22.70;36.70;;;;;;5126818;28;20036;-67
2022/01/07 11:21:19;;;;;;;1.23;0.20;;;22.70;36.70;;;;;;5116004;27;20048;-67
2022/01/07 11:23:45;;;;;;;0.80;0.20;;;22.90;36.70;;;;;;5117263;28;20486;-65
2022/01/07 11:26:16;;;;;;;1.08;0.28;;;23.10;36.40;;;;;;5112118;28;20410;-66
2022/01/07 11:29:03;;;;;;;0.52;0.10;;;23.40;36.20;;;;;;5114000;28;20067;-69
2022/01/07 11:31:30;;;;;;;1.15;0.20;;;23.60;35.90;;;;;;5114194;28;20040;-72
2022/01/07 11:36:58;;;;;;;0.73;0.20;;;23.90;34.90;;;;;;5129839;27;20436;-72
2022/01/07 11:39:39;;;;;;;1.15;0.20;;;23.80;34.90;;;;;;5128403;28;20482;-67
2022/01/07 11:42:07;;;;;;;1.35;0.20;;;23.70;35.00;;;;;;5128397;28;20036;-69
2022/01/07 11:44:33;;;;;;;2.83;0.52;;;23.70;35.00;;;;;;5129106;28;20089;-66
2022/01/07 11:47:21;;;;;;;1.27;0.20;;;23.70;35.00;;;;;;5128595;28;20180;-66
2022/01/07 11:50:01;;;;;;;1.27;0.20;;;23.60;34.90;;;;;;5128266;28;20044;-68
2022/01/07 11:52:37;;;;;;;1.10;0.20;;;23.50;35.10;;;;;;5128601;28;20264;-72
2022/01/07 12:14:29;;;;;;;0.93;0.10;;;24.30;34.20;;;;;;5127850;27;21137;-72
2022/01/07 12:16:57;;;;;;;1.83;0.10;;;24.30;33.80;;;;;;5125672;28;20100;-66
2022/01/07 12:22:11;;;;;;;0.95;0.20;;;24.30;33.70;;;;;;5130362;27;20414;-67
2022/01/07 12:24:37;;;;;;;2.15;0.10;;;24.00;33.90;;;;;;5128331;28;20652;-67
2022/01/07 12:29:47;;;;;;;1.70;0.10;;;23.80;34.40;;;;;;5128364;27;20362;-69
2022/01/07 12:32:18;;;;;;;2.30;0.17;;;23.30;35.00;;;;;;5125225;28;20051;-71
2022/01/07 12:34:48;;;;;;;1.90;0.20;;;23.10;35.40;;;;;;5127221;28;20047;-66
2022/01/07 12:37:17;;;;;;;1.48;0.10;;;22.80;35.80;;;;;;5128940;27;20078;-68
2022/01/07 12:42:23;;;;;;;0.65;0.10;;;22.60;36.20;;;;;;5129041;27;20353;-73
2022/01/07 12:44:52;;;;;;;0.60;0.10;;;22.20;36.70;;;;;;5126341;28;20568;-67
2022/01/07 12:47:20;;;;;;;0.57;0.10;;;22.00;37.00;;;;;;5122189;28;20058;-66
2022/01/07 12:49:54;;;;;;;1.55;0.20;;;21.80;37.20;;;;;;5122600;28;20431;-74
2022/01/07 12:55:07;;;;;;;1.67;0.20;;;21.60;37.50;;;;;;5088400;28;20409;-66
2022/01/07 13:02:56;;;;;;;0.82;0.10;;;21.30;38.40;;;;;;5129535;27;20411;-68
2022/01/07 13:10:49;;;;;;;3.50;0.10;;;20.40;40.10;;;;;;5129496;27;20353;-71
2022/01/07 13:13:24;;;;;;;1.27;0.10;;;20.30;40.50;;;;;;5125795;28;20039;-73
2022/01/07 13:15:55;;;;;;;2.15;0.15;;;20.10;40.70;;;;;;5128683;27;20027;-68
2022/01/07 13:18:40;;;;;;;1.48;0.10;;;20.00;41.20;;;;;;5113344;28;20043;-68
2022/01/07 13:23:49;;;;;;;5.30;0.30;;;19.80;41.60;;;;;;5145817;27;1157291;-70
2022/01/07 13:26:15;;;;;;;3.63;0.20;;;19.50;42.50;;;;;;5137293;27;20049;-69
2022/01/07 13:28:45;;;;;;;2.83;0.20;;;19.40;42.90;;;;;;5134338;27;20039;-71
2022/01/07 13:31:12;;;;;;;8.50;0.45;;;19.30;43.20;;;;;;5130847;27;20088;-69
2022/01/07 13:33:40;;;;;;;2.75;0.20;;;19.20;43.30;;;;;;5131456;27;20055;-71
2022/01/07 13:36:09;;;;;;;2.40;0.20;;;19.10;43.50;;;;;;5131911;27;20042;-71
2022/01/07 13:38:36;;;;;;;1.75;0.10;;;19.00;43.60;;;;;;5149991;27;20398;-72
2022/01/07 13:44:04;;;;;;;1.13;0.20;;;18.80;44.00;;;;;;5089355;28;20393;-74
2022/01/07 13:46:33;;;;;;;1.98;0.17;;;18.80;44.40;;;;;;5087926;28;20051;-72
2022/01/07 13:51:37;;;;;;;0.90;0.10;;;18.70;44.40;;;;;;5134261;27;1188775;-70
2022/01/07 13:56:54;;;;;;;0.50;0.13;;;18.60;44.70;;;;;;5129429;27;20736;-69
2022/01/07 13:59:20;;;;;;;1.00;0.40;;;18.40;44.70;;;;;;5127255;28;20079;-68
2022/01/07 14:02:04;;;;;;;1.25;0.10;;;18.30;44.70;;;;;;5127983;28;20074;-68
2022/01/07 14:13:05;;;;;;;1.63;0.40;;;18.20;45.00;;;;;;5129194;27;20177;-69
2022/01/07 14:15:37;;;;;;;4.13;0.30;;;18.10;45.30;;;;;;5128179;28;20116;-69
2022/01/07 14:20:56;;;;;;;1.17;0.25;;;18.10;45.30;;;;;;5146575;27;20111;-71
2022/01/07 14:26:08;;;;;;;1.25;0.20;;;18.00;45.60;;;;;;5112218;27;20759;-69
2022/01/07 14:28:40;;;;;;;1.83;0.30;;;17.90;45.50;;;;;;5098023;28;20108;-69
2022/01/07 14:31:06;;;;;;;1.30;0.30;;;17.90;45.60;;;;;;5094557;28;20047;-69